Latest Weather Observations for Gove Airport

IDD60801

Issued at 12:05 pm CST Saturday 25 October 2014 (issued every 30 minutes, with the page automatically refreshed every 10 minutes)

About weather observations | Map of weather stations | Latest weather observations for NT | Other Formats
Station Details ID: 014508 Name: GOVE AIRPORT Lat: -12.27 Lon: 136.82 Height: 51.6 m
Data from the previous 72 hours. | See also: Recent months at Gove Airport
Date/Time
CST
Temp
°C
App
Temp
°C
Dew
Point
Rel
Hum
%
Delta-T
°C
Wind Press
QNH
hPa
Press
MSL
hPa
Rain
since 9 am
mm
Dir
 
Spd
km/h
Gust
km/h
Spd
kts
Gust
kts
25/12:00pm 29.9 28.6 19.1 52 7.0 ESE 24 32 13 17 1014.7 1014.3 0.0
25/11:30am 29.6 28.3 19.0 53 6.9 ESE 24 32 13 17 1015.1 - 0.0
25/11:00am 29.8 28.7 19.4 53 6.8 E 24 35 13 19 1015.3 - 0.0
25/10:30am 29.0 28.4 18.9 54 6.5 E 20 30 11 16 1015.7 - 0.0
25/10:00am 28.6 28.1 19.2 56 6.1 E 20 30 11 16 1015.8 - 0.0
25/09:30am 28.8 28.0 19.2 56 6.2 E 22 32 12 17 1016.0 - 0.0
25/09:00am 28.7 28.1 19.7 58 5.9 ESE 22 32 12 17 1016.0 1015.7 0.0
25/08:30am 28.1 28.1 19.8 60 5.4 E 19 28 10 15 1016.0 - 0.0
25/08:00am 27.4 28.1 19.7 63 5.0 E 15 20 8 11 1015.8 - 0.0
25/07:30am 26.4 28.0 19.9 67 4.2 ESE 11 15 6 8 1015.5 - 0.0
25/07:00am 23.5 27.4 20.4 83 2.0 CALM 0 2 0 1 1015.2 - 0.0
25/06:30am 20.9 24.3 19.3 90 1.0 CALM 0 0 0 0 1014.9 - 0.0
25/06:00am 19.7 22.8 18.6 93 0.7 CALM 0 0 0 0 1014.5 1014.1 0.0
25/05:30am 19.9 21.8 18.6 92 0.8 S 6 11 3 6 1014.0 - 0.0
25/05:00am 19.7 22.4 18.6 93 0.7 SSW 2 7 1 4 1014.0 - 0.0
25/04:30am 19.7 21.5 18.4 92 0.8 SE 6 7 3 4 1013.8 - 0.0
25/04:00am 20.1 22.0 19.0 93 0.7 SSE 7 9 4 5 1013.6 - 0.0
25/03:30am 20.2 23.4 18.9 92 0.8 CALM 0 0 0 0 1013.6 - 0.0
25/03:00am 20.3 23.6 19.0 92 0.8 CALM 0 0 0 0 1013.5 1013.1 0.0
25/02:30am 20.5 23.8 19.1 92 0.9 CALM 0 0 0 0 1013.5 - 0.0
25/02:00am 20.4 22.5 19.0 92 0.9 ESE 6 9 3 5 1013.9 - 0.0
25/01:30am 20.0 23.0 18.4 90 1.0 CALM 0 0 0 0 1013.9 - 0.0
25/01:00am 20.5 23.8 19.1 92 0.9 CALM 0 0 0 0 1014.3 - 0.0
25/12:30am 20.2 23.4 18.8 92 0.9 CALM 0 0 0 0 1014.3 - 0.0
25/12:00am 20.7 24.0 19.1 90 1.0 ESE 0 0 0 0 1014.8 1014.5 0.0
 
Date/Time
CST
Temp
°C
App
Temp
°C
Dew
Point
Rel
Hum
%
Delta-T
°C
Wind Press
QNH
hPa
Press
MSL
hPa
Rain
since 9 am
mm
Dir
 
Spd
km/h
Gust
km/h
Spd
kts
Gust
kts
24/11:30pm 20.8 23.8 18.4 86 1.5 CALM 0 0 0 0 1014.9 - 0.0
24/11:00pm 20.7 24.0 19.0 90 1.1 CALM 0 0 0 0 1015.0 - 0.0
24/10:30pm 21.6 23.8 19.2 86 1.5 SE 6 7 3 4 1015.2 - 0.0
24/10:00pm 22.3 24.3 20.0 87 1.5 SE 9 11 5 6 1014.9 - 0.0
24/09:30pm 21.5 25.1 19.8 90 1.1 CALM 0 0 0 0 1014.5 - 0.0
24/09:00pm 22.8 26.2 19.4 81 2.2 CALM 0 4 0 2 1014.3 1013.9 0.0
24/08:30pm 23.8 26.3 20.3 81 2.3 SE 7 7 4 4 1013.9 - 0.0
24/08:00pm 24.6 26.6 20.0 75 3.0 SE 9 11 5 6 1013.6 - 0.0
24/07:30pm 25.2 27.2 20.0 73 3.4 ESE 9 13 5 7 1013.2 - 0.0
24/07:00pm 25.9 27.1 19.9 69 3.9 ESE 13 19 7 10 1013.0 - 0.0
24/06:30pm 26.2 27.3 19.6 67 4.3 ESE 13 20 7 11 1012.7 - 0.0
24/06:00pm 26.8 26.5 19.6 64 4.7 ESE 20 26 11 14 1012.3 1011.9 0.0
24/05:30pm 27.4 27.2 19.7 63 5.0 E 20 26 11 14 1012.1 - 0.0
24/05:00pm 27.9 26.9 18.9 58 5.8 E 22 32 12 17 1011.9 - 0.0
24/04:30pm 28.2 26.6 18.4 55 6.3 E 24 33 13 18 1011.9 - 0.0
24/04:00pm 29.0 28.6 19.3 55 6.3 ENE 20 30 11 16 1011.7 - 0.0
24/03:30pm 29.3 27.8 17.7 49 7.4 E 22 28 12 15 1011.8 - 0.0
24/03:00pm 28.7 27.4 19.0 55 6.3 E 24 32 13 17 1012.1 1011.7 0.0
24/02:30pm 28.5 27.5 19.6 58 5.8 ENE 24 35 13 19 1012.3 - 0.0
24/02:00pm 29.1 28.3 18.4 52 6.9 E 20 26 11 14 1012.4 - 0.0
24/01:30pm 29.4 28.0 18.7 52 6.9 E 24 37 13 20 1012.8 - 0.0
24/01:00pm 30.1 27.7 18.3 49 7.6 ENE 28 37 15 20 1013.3 - 0.0
24/12:30pm 29.7 28.5 19.3 53 6.8 E 24 32 13 17 1013.7 - 0.0
24/12:00pm 29.9 29.4 19.9 55 6.6 E 22 32 12 17 1014.4 1014.0 0.0
24/11:30am 29.5 28.2 18.1 50 7.3 E 22 32 12 17 1014.7 - 0.0
24/11:00am 29.3 28.4 19.0 53 6.7 ENE 22 35 12 19 1015.1 - 0.0
24/10:30am 29.3 28.0 19.1 54 6.6 E 24 37 13 20 1015.6 - 0.0
24/10:00am 28.8 27.7 19.4 56 6.1 E 24 35 13 19 1015.9 - 0.0
24/09:30am 28.5 26.9 19.2 57 6.0 E 26 33 14 18 1016.1 - 0.0
24/09:00am 28.8 28.5 19.6 57 6.0 E 20 28 11 15 1016.1 1015.8 0.0
24/08:30am 27.3 27.0 19.6 62 5.0 ENE 20 32 11 17 1016.0 - 0.0
24/08:00am 27.2 27.2 20.2 65 4.6 E 20 28 11 15 1016.0 - 0.0
24/07:30am 26.3 27.8 20.5 70 3.8 E 13 19 7 10 1015.5 - 0.0
24/07:00am 24.5 27.2 20.7 79 2.5 ENE 7 11 4 6 1015.1 - 0.0
24/06:30am 21.8 24.4 20.4 92 0.9 ESE 7 7 4 4 1014.8 - 0.0
24/06:00am 21.1 23.3 19.7 92 0.9 ESE 7 9 4 5 1014.4 1014.0 0.0
24/05:30am 21.8 24.1 19.9 89 1.2 ESE 7 11 4 6 1014.0 - 0.0
24/05:00am 20.5 22.7 19.2 92 0.8 ESE 6 9 3 5 1013.6 - 0.0
24/04:30am 20.9 23.3 19.6 92 0.8 ESE 6 9 3 5 1013.3 - 0.0
24/04:00am 20.4 22.6 19.1 92 0.8 E 6 7 3 4 1012.9 - 0.0
24/03:33am 20.9 23.0 19.3 90 1.0 E 7 9 4 5 1012.9 - 0.0
24/03:30am 20.8 22.9 19.4 92 0.9 ESE 7 9 4 5 1012.8 - 0.0
24/03:02am 19.9 22.7 18.0 89 1.2 CALM 0 0 0 0 1012.7 - 0.0
24/03:00am 20.0 22.9 18.1 89 1.2 CALM 0 0 0 0 1012.7 1012.3 0.0
24/02:30am 20.3 23.6 19.2 93 0.7 CALM 0 0 0 0 1012.8 - 0.0
24/02:00am 20.4 23.7 19.0 92 0.9 CALM 0 6 0 3 1013.1 - 0.0
24/01:30am 20.4 23.6 18.8 90 1.0 CALM 0 0 0 0 1013.4 - 0.0
24/01:00am 20.7 24.1 19.4 92 0.8 CALM 0 0 0 0 1013.7 - 0.0
24/12:30am 21.3 24.7 19.4 89 1.2 CALM 0 0 0 0 1014.1 - 0.0
24/12:00am 21.4 24.6 19.8 91 1.0 N 2 6 1 3 1014.4 1014.0 0.0
 
Date/Time
CST
Temp
°C
App
Temp
°C
Dew
Point
Rel
Hum
%
Delta-T
°C
Wind Press
QNH
hPa
Press
MSL
hPa
Rain
since 9 am
mm
Dir
 
Spd
km/h
Gust
km/h
Spd
kts
Gust
kts
23/11:30pm 22.5 25.2 20.7 89 1.2 ESE 7 7 4 4 1014.7 - 0.0
23/11:00pm 22.8 25.8 20.8 88 1.3 ENE 6 7 3 4 1014.7 - 0.0
23/10:30pm 22.9 25.9 20.9 88 1.3 ESE 6 7 3 4 1015.0 - 0.0
23/10:00pm 23.6 26.6 21.2 86 1.6 ESE 7 7 4 4 1014.9 - 0.0
23/09:30pm 24.1 27.2 21.5 85 1.7 ESE 7 7 4 4 1014.7 - 0.0
23/09:00pm 24.2 27.2 21.2 83 2.0 ESE 7 9 4 5 1014.2 1013.8 0.0
23/08:30pm 24.7 27.3 21.2 81 2.3 ESE 9 11 5 6 1013.8 - 0.0
23/08:00pm 25.1 27.7 21.2 79 2.6 ESE 9 13 5 7 1013.5 - 0.0
23/07:30pm 25.9 28.5 21.2 75 3.1 ESE 9 11 5 6 1013.2 - 0.0
23/07:00pm 26.3 28.1 21.2 73 3.4 ESE 13 17 7 9 1013.0 - 0.0
23/06:30pm 26.6 27.7 21.3 72 3.5 E 17 20 9 11 1012.7 - 0.0
23/06:00pm 27.1 28.6 21.2 70 3.9 E 15 20 8 11 1012.4 1012.0 0.0
23/05:30pm 27.4 27.9 21.1 68 4.2 ESE 20 24 11 13 1012.1 - 0.0
23/05:00pm 28.7 28.5 19.8 58 5.8 ESE 20 28 11 15 1011.8 - 0.0
23/04:30pm 29.0 27.7 18.2 52 6.9 E 22 30 12 16 1011.7 - 0.0
23/04:00pm 30.0 29.1 18.2 49 7.6 E 20 28 11 15 1011.7 - 0.0
23/03:30pm 29.8 29.1 19.4 53 6.8 ESE 22 33 12 18 1011.8 - 0.0
23/03:00pm 29.8 28.4 18.8 51 7.1 E 24 30 13 16 1012.0 1011.6 0.0
23/02:30pm 29.9 29.4 19.0 52 7.1 E 20 35 11 19 1012.2 - 0.0
23/02:00pm 30.1 29.2 18.1 48 7.7 ESE 20 28 11 15 1012.4 - 0.0
23/01:30pm 31.7 31.1 18.8 46 8.4 ESE 20 30 11 16 1012.7 - 0.0
23/01:00pm 30.5 30.2 19.5 51 7.2 E 20 32 11 17 1013.1 - 0.0
23/12:30pm 30.8 29.8 19.7 51 7.3 ENE 24 32 13 17 1013.5 - 0.0
23/12:00pm 28.9 28.8 19.9 58 5.9 ESE 20 32 11 17 1013.8 1013.4 0.0
23/11:30am 30.1 30.1 20.1 55 6.6 ENE 20 35 11 19 1014.2 - 0.0
23/11:00am 29.1 29.6 20.0 58 6.0 ENE 17 22 9 12 1014.4 - 0.0
23/10:30am 29.3 29.2 19.5 55 6.4 ENE 19 28 10 15 1014.6 - 0.0
23/10:00am 29.1 29.5 19.8 57 6.1 E 17 26 9 14 1014.9 - 0.0
23/09:30am 28.7 29.6 20.0 59 5.7 ENE 15 22 8 12 1015.0 - 0.0
23/09:00am 28.8 29.7 20.1 59 5.7 ENE 15 19 8 10 1015.1 1014.8 0.0
23/08:30am 27.7 29.1 20.4 64 4.8 ENE 13 19 7 10 1015.1 - 0.0
23/08:00am 27.2 28.7 20.5 67 4.4 E 13 20 7 11 1015.0 - 0.0
23/07:30am 25.8 28.0 21.1 75 3.1 E 11 13 6 7 1014.8 - 0.0
23/07:00am 24.5 27.4 20.7 79 2.5 ESE 6 9 3 5 1014.4 - 0.0
23/06:30am 20.9 23.3 19.6 92 0.8 ESE 6 6 3 3 1014.3 - 0.0
23/06:00am 21.0 23.2 19.6 92 0.9 ENE 7 11 4 6 1013.9 1013.5 0.0
23/05:30am 20.0 23.3 19.0 94 0.6 CALM 0 0 0 0 1013.7 - 0.0
23/05:00am 20.5 22.5 19.1 92 0.9 E 7 7 4 4 1013.5 - 0.0
23/04:30am 20.3 23.5 19.7 96 0.4 NE 2 9 1 5 1013.2 - 0.0
23/04:00am 20.0 23.2 18.9 93 0.7 CALM 0 0 0 0 1013.2 - 0.0
23/03:30am 21.3 24.6 19.9 92 0.9 SE 2 7 1 4 1013.2 - 0.0
23/03:00am 19.6 22.2 18.5 93 0.7 N 2 7 1 4 1013.0 1012.6 0.0
23/02:30am 19.9 22.8 18.1 89 1.1 CALM 0 0 0 0 1013.2 - 0.0
23/02:00am 20.1 23.2 18.7 92 0.9 CALM 0 0 0 0 1013.3 - 0.0
23/01:30am 20.2 23.3 18.6 90 1.0 CALM 0 0 0 0 1013.6 - 0.0
23/01:00am 20.3 23.5 18.9 92 0.9 CALM 0 0 0 0 1013.7 - 0.0
23/12:30am 20.6 24.0 19.3 92 0.8 CALM 0 0 0 0 1014.0 - 0.0
23/12:00am 20.8 24.1 19.1 90 1.1 CALM 0 0 0 0 1014.2 1013.8 0.0
 
Date/Time
CST
Temp
°C
App
Temp
°C
Dew
Point
Rel
Hum
%
Delta-T
°C
Wind Press
QNH
hPa
Press
MSL
hPa
Rain
since 9 am
mm
Dir
 
Spd
km/h
Gust
km/h
Spd
kts
Gust
kts
22/11:30pm 21.1 23.8 19.5 90 1.0 E 4 6 2 3 1014.5 - 0.0
22/11:00pm 21.6 24.3 20.2 92 0.9 N 6 7 3 4 1014.6 - 0.0
22/10:30pm 21.9 24.6 20.2 90 1.1 E 6 6 3 3 1014.6 - 0.0
22/10:00pm 23.0 25.8 20.9 88 1.4 ESE 7 7 4 4 1014.6 - 0.0
22/09:30pm 23.8 26.9 21.4 86 1.6 E 7 9 4 5 1014.4 - 0.0
22/09:00pm 25.1 27.9 21.5 80 2.4 E 9 13 5 7 1014.1 1013.7 0.0
22/08:30pm 25.3 28.0 21.4 79 2.6 ESE 9 13 5 7 1013.9 - 0.0
22/08:00pm 25.7 28.1 21.5 77 2.8 ESE 11 13 6 7 1013.7 - 0.0
22/07:30pm 25.9 27.9 21.5 76 2.9 E 13 17 7 9 1013.4 - 0.0
22/07:00pm 26.2 27.8 21.4 75 3.2 ESE 15 20 8 11 1013.2 - 0.0
22/06:30pm 26.5 27.6 21.2 72 3.5 E 17 26 9 14 1013.1 - 0.0
22/06:00pm 27.0 28.0 21.1 70 3.9 E 17 24 9 13 1012.9 1012.5 0.0
22/05:30pm 27.9 28.8 21.5 68 4.3 E 19 26 10 14 1012.7 - 0.0
22/05:00pm 27.9 28.3 20.6 64 4.8 E 19 26 10 14 1012.6 - 0.0
22/04:30pm 29.1 29.0 20.0 58 6.0 E 20 30 11 16 1012.5 - 0.0
22/04:00pm 29.5 28.9 18.8 52 6.9 E 20 30 11 16 1012.4 - 0.0
22/03:30pm 29.2 28.7 19.0 54 6.6 E 20 28 11 15 1012.5 - 0.0
22/03:00pm 30.6 29.2 18.0 47 8.1 E 22 30 12 16 1012.6 1012.2 0.0
22/02:30pm 30.6 29.5 17.8 46 8.2 E 20 24 11 13 1012.6 - 0.0
22/02:00pm 30.4 30.5 19.2 51 7.3 ENE 17 28 9 15 1012.7 - 0.0
22/01:30pm 30.0 29.8 19.3 52 7.0 ENE 19 24 10 13 1013.2 - 0.0
22/01:00pm 30.6 31.1 20.0 53 7.0 ENE 17 22 9 12 1013.8 - 0.0
22/12:30pm 29.9 29.5 19.3 53 6.9 ENE 20 28 11 15 1014.4 - 0.0

Other Formats:

Comma delimited format used in spreadsheet applications
http://www.bom.gov.au/fwo/IDD60801/IDD60801.94150.axf

JavaScript Object Notation format (JSON) in row-major order
http://www.bom.gov.au/fwo/IDD60801/IDD60801.94150.json